首页
METAR-TAF:

METAR-TAF

机场 :

诺福克海军基地

諾福克, 弗吉尼亚州, 美国

纬度: 36-56-01N, 经度: 076-17-45W, 海拔: 4米

当前天气观测

该预报发布于15分钟前的10:59 UTC
风速13节,风向
温度 6°C
湿度 52%
气压 1028 hPa
能見度: 16.1公里
天空无云

METAR: KNGU 221059Z AUTO 01013KT 10SM CLR 06/M03 A3035 RMK AO2 SLP276 T00561028

时间: 06:14 (11:14 UTC)

预报

预报有效从22日的 07点(UTC)到 23日的 07点(UTC)
风速12节,风向,有时为22节阵风
能见度10公里或以上
少量云层高于25000英尺
成为
从 22日的 14点(UTC)到 22日的 16点(UTC)
风速12节,风向北转东北,有时为22节阵风
能見度: 2305
散云层高于25000英尺

TAF: KNGU 2207/2307 35012G22KT 9999 FEW250 QNH3022INS BECMG 2214/2216 02012G22KT 9999 SCT250 QNH3032INS AUTOMATED SENSOR METWATCH 2207 TIL 2305 T09/2208Z TM01/2306Z FN00178

超过4000个机场的气象观测和天气预报(METAR&TAF报告)。

可查询的气象台以黄色和红色小点在地图上表示。

将鼠标移到小点上方,可查看气象台名称。

然后点击查看天气观测和预报。

如需切换地图:点击带黑十字的绿色按钮放大地图;点击带横线的绿色按钮缩小地图;或者点击绿色箭头查看邻近地区的地图。


METAR-TAF: